Time;durP1;ratioP1;P1;durP2;ratioP2;P2;SDS_P1;SDS_P2;PMS_P1;PMS_P2;Temp;Humidity;BMP_temperature;BMP_pressure;BME280_temperature;BME280_humidity;BME280_pressure;Samples;Min_cycle;Max_cycle;Signal;HPM_P1;HPM_P2
2022/05/21 00:02:13;;;;;;;;;;;;;;;12.46;68.90;100622.52;1686112;83;20221;-89
2022/05/21 00:04:44;;;;;;;;;;;;;;;12.47;68.96;100615.06;1690458;83;20228;-90
2022/05/21 00:07:13;;;;;;;;;;;;;;;12.48;69.09;100601.42;1709493;83;21775;-90
2022/05/21 00:09:39;;;;;;;;;;;;;;;12.48;69.19;100590.45;1690815;83;20229;-90
2022/05/21 00:12:07;;;;;;;;;;;;;;;12.52;69.29;100582.12;1690437;83;20299;-90
2022/05/21 00:14:34;;;;;;;;;;;;;;;12.54;69.26;100574.69;1690703;83;20269;-89
2022/05/21 00:17:01;;;;;;;;;;;;;;;12.57;69.24;100562.83;1690702;83;20264;-90
2022/05/21 00:19:29;;;;;;;;;;;;;;;12.59;69.29;100555.85;1690372;83;21047;-90
2022/05/21 00:21:56;;;;;;;;;;;;;;;12.62;69.36;100547.07;1690290;83;20292;-90
2022/05/21 00:24:22;;;;;;;;;;;;;;;12.65;69.34;100536.56;1693661;82;20221;-90
2022/05/21 00:26:49;;;;;;;;;;;;;;;12.68;69.37;100536.58;1706675;83;20233;-90
2022/05/21 00:29:20;;;;;;;;;;;;;;;12.71;69.37;100540.59;1670985;84;20265;-91
2022/05/21 00:31:45;;;;;;;;;;;;;;;12.73;69.39;100534.89;1696828;83;21796;-90
2022/05/21 00:34:13;;;;;;;;;;;;;;;12.76;69.40;100528.75;1701380;82;20856;-90
2022/05/21 00:36:39;;;;;;;;;;;;;;;12.78;69.37;100521.73;1689099;84;20202;-91
2022/05/21 00:39:06;;;;;;;;;;;;;;;12.79;69.41;100508.55;1689157;83;20236;-90
2022/05/21 00:41:33;;;;;;;;;;;;;;;12.81;69.46;100506.81;1685836;83;20954;-90
2022/05/21 00:43:59;;;;;;;;;;;;;;;12.84;69.53;100505.53;1685313;84;21829;-90
2022/05/21 00:46:31;;;;;;;;;;;;;;;12.89;69.53;100500.73;1689233;83;20931;-90
2022/05/21 00:49:04;;;;;;;;;;;;;;;12.93;69.48;100497.25;1702166;83;20199;-90
2022/05/21 00:51:33;;;;;;;;;;;;;;;12.95;69.47;100489.81;1697398;83;20218;-91
2022/05/21 00:54:01;;;;;;;;;;;;;;;12.97;69.39;100489.39;1690475;83;20926;-91
2022/05/21 00:56:31;;;;;;;;;;;;;;;13.00;69.32;100484.56;1685305;83;21777;-90
2022/05/21 01:01:44;;;;;;;;;;;;;;;13.00;69.27;100468.27;1689738;84;20245;-90
2022/05/21 01:04:11;;;;;;;;;;;;;;;13.01;69.33;100464.78;1687325;84;21150;-89
2022/05/21 01:06:37;;;;;;;;;;;;;;;13.04;69.35;100465.23;1709672;83;20227;-90
2022/05/21 01:09:06;;;;;;;;;;;;;;;13.03;69.39;100452.91;1688786;83;21779;-90
2022/05/21 01:11:33;;;;;;;;;;;;;;;13.09;69.38;100453.41;1688468;83;21041;-90
2022/05/21 01:13:59;;;;;;;;;;;;;;;13.12;69.40;100445.48;1686481;83;20225;-90
2022/05/21 01:16:26;;;;;;;;;;;;;;;13.15;69.40;100442.88;1690376;83;20241;-90
2022/05/21 01:18:52;;;;;;;;;;;;;;;13.17;69.40;100442.46;1694514;82;20211;-91
2022/05/21 01:21:19;;;;;;;;;;;;;;;13.18;69.42;100443.80;1671609;83;21703;-90
2022/05/21 01:23:46;;;;;;;;;;;;;;;13.23;69.44;100442.50;1683707;83;20273;-90
2022/05/21 01:26:18;;;;;;;;;;;;;;;13.29;69.41;100441.27;1690790;83;20224;-90
2022/05/21 01:28:45;;;;;;;;;;;;;;;13.32;69.36;100436.02;1692475;83;20194;-90
2022/05/21 01:31:11;;;;;;;;;;;;;;;13.36;69.31;100439.16;1688836;83;20175;-91
2022/05/21 01:33:40;;;;;;;;;;;;;;;13.39;69.27;100430.36;1692558;83;21738;-91
2022/05/21 01:36:06;;;;;;;;;;;;;;;13.43;69.23;100427.31;1688784;83;20171;-90
2022/05/21 01:38:33;;;;;;;;;;;;;;;13.44;69.13;100428.65;1691579;83;20261;-89
2022/05/21 01:40:59;;;;;;;;;;;;;;;13.47;69.07;100419.40;1690689;83;20906;-90
2022/05/21 01:46:13;;;;;;;;;;;;;;;13.53;68.99;100413.27;1681098;83;21780;-90
2022/05/21 01:48:40;;;;;;;;;;;;;;;13.56;68.92;100411.54;1684437;83;20202;-90
2022/05/21 01:51:06;;;;;;;;;;;;;;;13.58;68.93;100408.47;1684117;83;20194;-90
2022/05/21 01:53:33;;;;;;;;;;;;;;;13.63;68.91;100397.94;1685030;83;20308;-90
2022/05/21 01:56:03;;;;;;;;;;;;;;;13.68;68.85;100396.63;1686007;83;20477;-90
2022/05/21 01:58:29;;;;;;;;;;;;;;;13.69;68.79;100382.09;1686158;83;21763;-90
2022/05/21 02:00:56;;;;;;;;;;;;;;;13.72;68.87;100378.58;1683337;83;20214;-90
2022/05/21 02:03:23;;;;;;;;;;;;;;;13.76;68.83;100375.98;1680762;83;21009;-89
2022/05/21 02:05:49;;;;;;;;;;;;;;;13.78;68.73;100374.67;1680969;83;21099;-90
2022/05/21 02:08:16;;;;;;;;;;;;;;;13.79;68.75;100369.39;1680654;83;20202;-90
2022/05/21 02:10:42;;;;;;;;;;;;;;;13.81;68.75;100369.37;1686243;83;21473;-91
2022/05/21 02:13:18;;;;;;;;;;;;;;;13.86;68.76;100357.06;1686057;83;20218;-91
2022/05/21 02:15:44;;;;;;;;;;;;;;;13.90;68.75;100348.70;1685693;83;20900;-90
2022/05/21 02:18:12;;;;;;;;;;;;;;;13.93;68.70;100340.35;1683011;83;20887;-90
2022/05/21 02:20:41;;;;;;;;;;;;;;;13.95;68.65;100336.39;1685089;83;20253;-90
2022/05/21 02:23:07;;;;;;;;;;;;;;;13.95;68.58;100337.27;1685760;83;22685;-90
2022/05/21 02:25:34;;;;;;;;;;;;;;;13.96;68.51;100325.83;1686218;83;20536;-90
2022/05/21 02:28:00;;;;;;;;;;;;;;;13.94;68.50;100322.70;1685401;83;20215;-90
2022/05/21 02:30:27;;;;;;;;;;;;;;;13.92;68.46;100317.40;1684035;83;20936;-90
2022/05/21 02:32:53;;;;;;;;;;;;;;;13.92;68.47;100316.52;1686785;83;20436;-90
2022/05/21 02:35:19;;;;;;;;;;;;;;;13.92;68.52;100305.94;1684474;85;21575;-90
2022/05/21 02:40:31;;;;;;;;;;;;;;;13.89;68.48;100305.92;1684294;83;20218;-89
2022/05/21 02:42:57;;;;;;;;;;;;;;;13.88;68.52;100304.17;1674761;83;21054;-88
2022/05/21 02:45:26;;;;;;;;;;;;;;;13.90;68.57;100303.28;1701259;82;20932;-89
2022/05/21 02:47:53;;;;;;;;;;;;;;;13.93;68.62;100290.52;1674710;83;21884;-89
2022/05/21 02:50:22;;;;;;;;;;;;;;;13.93;68.60;100295.38;1680044;82;20969;-89
2022/05/21 02:52:48;;;;;;;;;;;;;;;13.95;68.66;100293.61;1665300;84;20275;-90
2022/05/21 02:55:15;;;;;;;;;;;;;;;13.96;68.71;100293.16;1665725;84;20195;-90
2022/05/21 02:57:42;;;;;;;;;;;;;;;13.99;68.75;100283.48;1659984;84;20691;-91
2022/05/21 03:00:11;;;;;;;;;;;;;;;14.02;68.78;100285.69;1659619;84;21756;-91
2022/05/21 03:02:38;;;;;;;;;;;;;;;14.02;68.76;100282.62;1664097;84;20874;-91
2022/05/21 03:05:05;;;;;;;;;;;;;;;14.01;68.71;100275.55;1672519;84;20241;-91
2022/05/21 03:07:38;;;;;;;;;;;;;;;14.02;68.77;100265.84;1669671;84;20242;-90
2022/05/21 03:10:23;;;;;;;;;;;;;;;14.04;68.78;100253.49;1662704;84;20256;-90
2022/05/21 03:12:52;;;;;;;;;;;;;;;14.03;68.80;100248.65;1670181;83;22525;-89
2022/05/21 03:15:21;;;;;;;;;;;;;;;14.03;68.84;100248.65;1683966;83;20513;-90
2022/05/21 03:17:47;;;;;;;;;;;;;;;14.02;68.83;100252.19;1667118;83;20232;-90
2022/05/21 03:20:15;;;;;;;;;;;;;;;14.01;68.87;100238.50;1671941;82;20186;-91
2022/05/21 03:22:41;;;;;;;;;;;;;;;14.03;68.91;100223.95;1667815;82;20159;-90
2022/05/21 03:25:08;;;;;;;;;;;;;;;14.05;68.96;100208.96;1666971;84;22461;-90
2022/05/21 03:27:38;;;;;;;;;;;;;;;14.06;69.07;100202.36;1671854;84;20209;-91
2022/05/21 03:30:05;;;;;;;;;;;;;;;14.09;69.18;100189.11;1680910;84;20341;-90
2022/05/21 03:32:32;;;;;;;;;;;;;;;14.11;69.33;100178.08;1642051;85;20245;-91
2022/05/21 03:34:58;;;;;;;;;;;;;;;14.13;69.34;100167.09;1675572;84;20264;-90
2022/05/21 03:37:25;;;;;;;;;;;;;;;14.13;69.35;100172.80;1667759;84;21775;-90
2022/05/21 03:39:51;;;;;;;;;;;;;;;14.11;69.34;100181.17;1671448;84;20181;-90
2022/05/21 03:42:18;;;;;;;;;;;;;;;14.11;69.53;100171.47;1674239;83;20270;-89
2022/05/21 03:44:46;;;;;;;;;;;;;;;14.10;69.56;100159.13;1671536;83;20378;-89
2022/05/21 03:47:13;;;;;;;;;;;;;;;14.08;69.71;100146.34;1695532;83;20260;-89
2022/05/21 03:49:43;;;;;;;;;;;;;;;14.07;69.72;100137.07;1697718;83;22010;-89
2022/05/21 03:52:09;;;;;;;;;;;;;;;13.99;69.67;100125.16;1696803;83;20208;-89
2022/05/21 03:54:39;;;;;;;;;;;;;;;13.95;69.86;100130.89;1689083;83;20232;-89
2022/05/21 03:57:05;;;;;;;;;;;;;;;13.96;70.05;100121.17;1645285;86;20155;-88
2022/05/21 03:59:33;;;;;;;;;;;;;;;13.99;70.25;100126.48;1637675;86;20234;-90
2022/05/21 04:01:59;;;;;;;;;;;;;;;14.06;70.37;100119.00;1624000;86;21852;-90
2022/05/21 04:04:26;;;;;;;;;;;;;;;14.12;70.35;100113.70;1625833;86;20223;-89
2022/05/21 04:06:52;;;;;;;;;;;;;;;14.19;70.53;100106.20;1627192;86;20267;-89
2022/05/21 04:09:19;;;;;;;;;;;;;;;14.33;70.57;100103.54;1632400;86;20368;-89
2022/05/21 04:11:45;;;;;;;;;;;;;;;14.46;70.40;100096.47;1640407;85;20886;-89
2022/05/21 04:14:14;;;;;;;;;;;;;;;14.59;70.47;100100.02;1633348;85;22731;-90
2022/05/21 04:16:41;;;;;;;;;;;;;;;14.71;70.36;100100.42;1635851;85;20218;-90
2022/05/21 04:19:09;;;;;;;;;;;;;;;14.77;70.18;100096.02;1628908;86;21027;-90
2022/05/21 04:21:36;;;;;;;;;;;;;;;14.80;70.01;100099.08;1640934;85;20649;-90
2022/05/21 04:24:03;;;;;;;;;;;;;;;14.75;69.88;100116.33;1637167;85;20225;-90
2022/05/21 04:26:29;;;;;;;;;;;;;;;14.70;69.86;100142.39;1637045;85;21758;-90
2022/05/21 04:28:55;;;;;;;;;;;;;;;14.62;69.87;100151.67;1632057;85;20251;-89
2022/05/21 04:31:22;;;;;;;;;;;;;;;14.50;70.03;100119.41;1641359;85;20225;-90
2022/05/21 04:33:48;;;;;;;;;;;;;;;14.38;69.88;100107.08;1626973;85;20223;-89
2022/05/21 04:36:18;;;;;;;;;;;;;;;14.30;70.31;100100.91;1637125;86;20226;-89
2022/05/21 04:38:46;;;;;;;;;;;;;;;14.26;70.42;100094.28;1649884;85;23192;-88
2022/05/21 04:41:18;;;;;;;;;;;;;;;14.25;70.68;100087.24;1633538;86;20197;-88
2022/05/21 04:43:43;;;;;;;;;;;;;;;14.25;70.81;100085.92;1631332;86;20366;-89
2022/05/21 04:46:09;;;;;;;;;;;;;;;14.19;70.87;100082.38;1650014;86;20637;-90
2022/05/21 04:48:41;;;;;;;;;;;;;;;14.12;71.05;100077.97;1657572;85;21096;-89
2022/05/21 04:51:08;;;;;;;;;;;;;;;14.11;71.38;100074.00;1663345;85;20983;-89
2022/05/21 04:53:34;;;;;;;;;;;;;;;14.10;71.65;100072.25;1670533;83;21211;-89
2022/05/21 04:56:01;;;;;;;;;;;;;;;14.12;71.80;100068.70;1682043;84;20530;-91
2022/05/21 04:58:27;;;;;;;;;;;;;;;14.12;71.79;100059.45;1679926;84;20699;-92
2022/05/21 05:00:54;;;;;;;;;;;;;;;14.09;71.79;100041.36;1674398;83;20240;-91
2022/05/21 05:03:24;;;;;;;;;;;;;;;14.06;71.80;100046.23;1672830;84;21749;-93
2022/05/21 05:06:10;;;;;;;;;;;;;;;13.92;72.05;100026.37;1674907;84;20490;-91
2022/05/21 05:08:25;;;;;;;;;;;;;;;14.06;72.30;100040.93;1649647;84;20240;-89
2022/05/21 05:10:55;;;;;;;;;;;;;;;14.05;72.21;100032.54;1678519;83;20226;-88
2022/05/21 05:13:23;;;;;;;;;;;;;;;14.07;72.34;100040.03;1660767;84;20251;-88
2022/05/21 05:15:50;;;;;;;;;;;;;;;14.09;72.50;100040.03;1665304;84;22772;-91
2022/05/21 05:18:18;;;;;;;;;;;;;;;14.06;72.55;100024.15;1673534;84;20819;-90
2022/05/21 05:20:57;;;;;;;;;;;;;;;14.00;72.55;100021.06;1667391;84;20219;-91
2022/05/21 05:23:50;;;;;;;;;;;;;;;14.04;72.98;100026.82;1680566;84;20329;-91
2022/05/21 05:26:17;;;;;;;;;;;;;;;14.12;72.98;100020.20;1676859;84;20362;-90
2022/05/21 05:28:44;;;;;;;;;;;;;;;14.18;73.10;100010.91;1676861;84;21813;-91
2022/05/21 05:31:16;;;;;;;;;;;;;;;14.26;73.17;100014.87;1659003;84;20230;-90
2022/05/21 05:33:42;;;;;;;;;;;;;;;14.29;73.27;100014.88;1680499;84;20230;-90
2022/05/21 05:36:18;;;;;;;;;;;;;;;14.36;73.29;100012.66;1677305;84;20349;-90
2022/05/21 05:38:46;;;;;;;;;;;;;;;14.36;73.18;100008.23;1650637;86;20213;-91
2022/05/21 05:44:14;;;;;;;;;;;;;;;14.43;73.32;100010.86;1663506;84;20207;-91
2022/05/21 05:46:40;;;;;;;;;;;;;;;14.46;73.26;99994.52;1687917;83;20228;-91
2022/05/21 05:49:08;;;;;;;;;;;;;;;14.49;73.36;99992.30;1694352;84;20809;-91
2022/05/21 05:51:37;;;;;;;;;;;;;;;14.48;73.04;99987.45;1700012;83;20380;-91
2022/05/21 05:54:03;;;;;;;;;;;;;;;14.51;73.22;99982.61;1703575;83;21753;-90
2022/05/21 05:56:32;;;;;;;;;;;;;;;14.54;73.26;99980.80;1702936;83;20240;-91
2022/05/21 06:01:44;;;;;;;;;;;;;;;14.62;73.39;99971.98;1691134;83;20227;-91
2022/05/21 06:04:11;;;;;;;;;;;;;;;14.70;73.48;99975.50;1703031;83;20236;-91
2022/05/21 06:06:43;;;;;;;;;;;;;;;14.68;73.28;99960.94;1703566;83;21783;-90
2022/05/21 06:09:10;;;;;;;;;;;;;;;14.67;73.42;99945.91;1703695;83;20906;-90
2022/05/21 06:11:38;;;;;;;;;;;;;;;14.84;73.60;99962.19;1704161;83;20806;-87
2022/05/21 06:14:04;;;;;;;;;;;;;;;14.91;73.63;99960.81;1699382;83;20264;-88
2022/05/21 06:16:34;;;;;;;;;;;;;;;15.00;73.57;99953.69;1688322;84;20270;-92
2022/05/21 06:19:00;;;;;;;;;;;;;;;15.10;73.57;99957.61;1686574;83;21886;-92
2022/05/21 06:21:27;;;;;;;;;;;;;;;15.19;73.41;99960.66;1701573;82;20223;-92
2022/05/21 06:23:53;;;;;;;;;;;;;;;15.24;73.30;99953.56;1686800;83;20936;-91
2022/05/21 06:26:23;;;;;;;;;;;;;;;15.31;73.36;99953.05;1698572;83;20248;-92
2022/05/21 06:28:53;;;;;;;;;;;;;;;15.45;73.23;99952.97;1691000;83;20235;-92
2022/05/21 06:31:24;;;;;;;;;;;;;;;15.53;73.16;99947.15;1691517;83;22540;-92
2022/05/21 06:33:52;;;;;;;;;;;;;;;15.62;72.93;99947.53;1693324;83;20352;-92
2022/05/21 06:36:26;;;;;;;;;;;;;;;15.65;72.70;99951.01;1692055;83;20590;-92
2022/05/21 06:38:52;;;;;;;;;;;;;;;15.68;72.52;99942.16;1690330;83;20247;-92
2022/05/21 06:41:19;;;;;;;;;;;;;;;15.70;72.43;99947.87;1693038;83;20247;-91
2022/05/21 06:43:48;;;;;;;;;;;;;;;15.73;72.40;99940.36;1688656;83;21757;-91
2022/05/21 06:46:20;;;;;;;;;;;;;;;15.81;72.46;99937.20;1688323;83;20265;-92
2022/05/21 06:48:47;;;;;;;;;;;;;;;15.81;72.21;99940.31;1691471;82;20232;-92
2022/05/21 06:51:16;;;;;;;;;;;;;;;15.75;72.05;99937.27;1716209;82;20960;-92
2022/05/21 06:53:45;;;;;;;;;;;;;;;15.72;72.14;99939.91;1685327;83;20537;-90
2022/05/21 06:56:13;;;;;;;;;;;;;;;15.78;72.40;99936.35;1674836;84;21624;-90
2022/05/21 06:58:44;;;;;;;;;;;;;;;15.87;72.46;99940.25;1693820;83;21138;-91
2022/05/21 07:01:16;;;;;;;;;;;;;;;15.89;72.44;99935.80;1675888;83;20205;-86
2022/05/21 07:03:48;;;;;;;;;;;;;;;15.89;72.46;99937.12;1685307;83;21875;-83
2022/05/21 07:09:04;;;;;;;;;;;;;;;15.96;72.50;99928.22;1685545;83;21769;-86
2022/05/21 07:11:33;;;;;;;;;;;;;;;16.04;72.56;99936.97;1684587;83;20335;-85
2022/05/21 07:13:59;;;;;;;;;;;;;;;16.15;72.55;99926.70;1676883;83;20284;-85
2022/05/21 07:16:26;;;;;;;;;;;;;;;16.25;72.33;99934.52;1676396;83;20244;-85
2022/05/21 07:18:52;;;;;;;;;;;;;;;16.31;72.06;99930.49;1684470;83;20219;-86
2022/05/21 07:21:19;;;;;;;;;;;;;;;16.36;71.92;99922.45;1682208;83;21823;-85
2022/05/21 07:24:09;;;;;;;;;;;;;;;16.36;71.67;99930.42;1680031;83;20663;-86
2022/05/21 07:26:34;;;;;;;;;;;;;;;16.39;71.54;99932.19;1693228;83;20272;-85
2022/05/21 07:29:04;;;;;;;;;;;;;;;16.47;71.34;99928.52;1693638;83;20220;-85
2022/05/21 07:31:29;;;;;;;;;;;;;;;16.66;71.21;99932.27;1684088;83;20702;-85
2022/05/21 07:33:59;;;;;;;;;;;;;;;16.88;70.62;99938.22;1683259;83;20462;-85
2022/05/21 07:36:26;;;;;;;;;;;;;;;17.09;70.24;99935.70;1679477;83;20834;-85
2022/05/21 07:38:52;;;;;;;;;;;;;;;17.20;69.87;99944.39;1673344;83;20239;-84
2022/05/21 07:41:19;;;;;;;;;;;;;;;17.25;69.23;99949.66;1675328;83;20248;-84
2022/05/21 07:43:48;;;;;;;;;;;;;;;17.16;68.72;99955.12;1679752;83;20242;-84
2022/05/21 07:46:15;;;;;;;;;;;;;;;16.99;68.54;99962.00;1676697;83;21798;-85
2022/05/21 07:48:41;;;;;;;;;;;;;;;16.78;68.47;99959.12;1689234;83;20233;-84
2022/05/21 07:51:08;;;;;;;;;;;;;;;16.58;68.55;99962.92;1686184;83;20246;-84
2022/05/21 07:53:36;;;;;;;;;;;;;;;16.46;68.63;99976.34;1689467;83;20249;-83
2022/05/21 07:56:03;;;;;;;;;;;;;;;16.33;68.61;99972.97;1685495;83;20241;-84
2022/05/21 07:58:33;;;;;;;;;;;;;;;16.22;68.45;99968.23;1692134;83;21707;-84
2022/05/21 08:00:59;;;;;;;;;;;;;;;16.11;68.50;99974.51;1677190;83;20251;-84
2022/05/21 08:03:26;;;;;;;;;;;;;;;16.06;68.66;99970.14;1691489;83;20540;-84
2022/05/21 08:05:53;;;;;;;;;;;;;;;16.02;68.54;99973.73;1685479;83;20646;-84
2022/05/21 08:08:20;;;;;;;;;;;;;;;15.92;68.51;99964.52;1690168;83;21065;-84
2022/05/21 08:10:49;;;;;;;;;;;;;;;15.85;68.67;99969.91;1689371;83;22620;-84
2022/05/21 08:13:15;;;;;;;;;;;;;;;15.79;68.59;99971.30;1685222;83;21394;-84
2022/05/21 08:15:42;;;;;;;;;;;;;;;15.79;68.78;99965.98;1686823;83;20207;-84
2022/05/21 08:18:11;;;;;;;;;;;;;;;15.83;68.79;99967.72;1692153;83;20714;-84
2022/05/21 08:20:37;;;;;;;;;;;;;;;15.88;68.84;99976.52;1692273;83;20365;-85
2022/05/21 08:28:36;;;;;;;;;;;;;;;16.01;68.14;99983.47;1687089;83;20227;-84
2022/05/21 08:31:03;;;;;;;;;;;;;;;15.99;67.92;99981.70;1683231;83;20219;-84
2022/05/21 08:33:30;;;;;;;;;;;;;;;15.99;67.76;99989.25;1676589;83;20247;-85
2022/05/21 08:35:56;;;;;;;;;;;;;;;15.97;67.29;99988.81;1686580;83;21735;-85
2022/05/21 08:38:23;;;;;;;;;;;;;;;16.17;67.43;99996.59;1688257;83;20195;-85
2022/05/21 08:40:56;;;;;;;;;;;;;;;16.52;67.15;99993.11;1691780;83;20237;-85
2022/05/21 08:43:27;;;;;;;;;;;;;;;16.84;66.43;100001.62;1693973;83;20521;-85
2022/05/21 08:46:20;;;;;;;;;;;;;;;17.21;66.13;100015.31;1699234;83;20379;-85
2022/05/21 08:48:59;;;;;;;;;;;;;;;17.60;65.05;100015.59;1687421;83;21791;-85
2022/05/21 08:51:28;;;;;;;;;;;;;;;17.85;64.52;100017.92;1688424;83;20189;-85
2022/05/21 08:53:58;;;;;;;;;;;;;;;17.97;63.55;100027.48;1686309;83;20206;-85
2022/05/21 08:56:24;;;;;;;;;;;;;;;18.12;63.65;100046.31;1680908;83;20322;-85
2022/05/21 08:58:56;;;;;;;;;;;;;;;18.29;62.79;100057.55;1691004;83;20782;-85
2022/05/21 09:01:24;;;;;;;;;;;;;;;18.14;61.58;100065.81;1685969;83;21740;-85
2022/05/21 09:03:58;;;;;;;;;;;;;;;17.84;60.97;100068.03;1675807;83;20193;-85
2022/05/21 09:06:56;;;;;;;;;;;;;;;17.67;61.67;100097.11;1686135;83;20262;-85
2022/05/21 09:09:49;;;;;;;;;;;;;;;17.74;61.43;100128.53;1685555;83;21190;-85
2022/05/21 09:12:23;;;;;;;;;;;;;;;17.67;61.67;100135.70;1682905;83;20263;-85
2022/05/21 09:14:52;;;;;;;;;;;;;;;17.36;61.30;100164.52;1677358;83;21966;-84
2022/05/21 09:17:23;;;;;;;;;;;;;;;17.10;64.84;100170.14;1691545;83;20248;-84
2022/05/21 09:19:59;;;;;;;;;;;;;;;16.99;63.73;100215.91;1689644;82;20251;-82
2022/05/21 09:22:26;;;;;;;;;;;;;;;16.81;62.28;100231.07;1672891;83;20291;-84
2022/05/21 09:24:56;;;;;;;;;;;;;;;16.71;62.20;100232.06;1663749;84;20275;-84
2022/05/21 09:27:33;;;;;;;;;;;;;;;16.70;62.21;100258.19;1710079;83;23137;-85
2022/05/21 09:30:21;;;;;;;;;;;;;;;16.60;61.39;100265.81;1693402;82;21305;-84
2022/05/21 09:32:52;;;;;;;;;;;;;;;16.38;61.40;100288.52;1688544;83;20792;-84
2022/05/21 09:35:18;;;;;;;;;;;;;;;16.21;61.01;100318.29;1683208;83;20244;-84
2022/05/21 09:37:46;;;;;;;;;;;;;;;16.12;61.22;100314.80;1679191;83;20250;-85
2022/05/21 09:40:37;;;;;;;;;;;;;;;16.09;61.38;100332.52;1684714;83;21769;-85
2022/05/21 09:46:18;;;;;;;;;;;;;;;16.07;61.39;100356.86;1683846;83;20252;-84
2022/05/21 09:48:46;;;;;;;;;;;;;;;15.92;61.17;100362.66;1668837;84;20723;-85
2022/05/21 09:51:30;;;;;;;;;;;;;;;15.90;61.59;100360.91;1696792;81;20255;-85
2022/05/21 09:53:59;;;;;;;;;;;;;;;16.02;61.36;100370.59;1680566;83;21818;-84
2022/05/21 09:56:33;;;;;;;;;;;;;;;15.88;61.25;100379.94;1688349;83;20265;-84
2022/05/21 09:59:14;;;;;;;;;;;;;;;15.58;60.47;100383.05;1668974;83;20233;-84
2022/05/21 10:02:25;;;;;;;;;;;;;;;;;;;;;
2022/05/21 10:04:48;;;;;;;;;;;;;;;15.28;61.10;100430.37;1629199;84;21066;-84
2022/05/21 10:13:15;;;;;;;;;;;;;;;16.16;61.08;100427.20;1685632;82;20410;-83
2022/05/21 10:15:45;;;;;;;;;;;;;;;16.21;60.06;100440.44;1697159;82;20247;-83
2022/05/21 10:18:27;;;;;;;;;;;;;;;16.23;60.15;100455.92;1692461;82;20244;-83
2022/05/21 10:20:59;;;;;;;;;;;;;;;16.42;59.93;100462.97;1700828;82;21831;-86
2022/05/21 10:23:31;;;;;;;;;;;;;;;16.54;60.02;100474.44;1657744;84;20894;-83
2022/05/21 10:26:29;;;;;;;;;;;;;;;16.73;59.52;100464.16;1693394;82;20236;-83
2022/05/21 10:29:01;;;;;;;;;;;;;;;16.81;59.09;100465.44;1687878;82;21275;-80
2022/05/21 10:31:43;;;;;;;;;;;;;;;16.74;58.61;100471.22;1692208;82;20230;-81
2022/05/21 10:34:44;;;;;;;;;;;;;;;16.79;58.89;100473.87;1679291;83;20255;-81
2022/05/21 10:38:05;;;;;;;;;;;;;;;16.89;58.27;100491.56;1691292;82;20252;-82
2022/05/21 10:40:52;;;;;;;;;;;;;;;16.81;58.07;100491.56;1690559;82;20280;-81
2022/05/21 10:43:31;;;;;;;;;;;;;;;16.88;57.89;100491.14;1693902;82;20289;-80
2022/05/21 10:46:14;;;;;;;;;;;;;;;16.97;57.61;100491.09;1674151;83;20207;-81
2022/05/21 10:48:50;;;;;;;;;;;;;;;17.01;57.52;100502.59;1681149;83;21768;-81
2022/05/21 10:51:35;;;;;;;;;;;;;;;17.04;57.80;100511.86;1677842;83;20209;-82
2022/05/21 10:54:34;;;;;;;;;;;;;;;17.30;57.63;100507.72;1681075;83;20228;-82
2022/05/21 10:57:18;;;;;;;;;;;;;;;17.58;56.97;100523.05;1680652;83;20994;-82
2022/05/21 11:00:10;;;;;;;;;;;;;;;17.39;55.79;100514.31;1677328;83;20296;-81
2022/05/21 11:03:18;;;;;;;;;;;;;;;17.33;56.73;100520.14;1672279;83;20840;-82
2022/05/21 11:05:42;;;;;;;;;;;;;;;17.58;55.81;100527.04;1666615;83;20844;-83
2022/05/21 11:08:16;;;;;;;;;;;;;;;17.22;55.46;100521.08;1677115;83;20759;-81
2022/05/21 11:11:04;;;;;;;;;;;;;;;17.06;55.36;100534.92;1682918;83;20184;-82
2022/05/21 11:13:43;;;;;;;;;;;;;;;17.09;55.86;100534.01;1677132;83;20241;-83
2022/05/21 11:16:15;;;;;;;;;;;;;;;17.11;55.24;100549.51;1675646;83;21815;-83
2022/05/21 11:18:53;;;;;;;;;;;;;;;16.96;55.26;100552.24;1668479;83;20243;-83
2022/05/21 11:21:30;;;;;;;;;;;;;;;17.14;55.61;100544.64;1679924;83;20252;-83
2022/05/21 11:24:17;;;;;;;;;;;;;;;17.25;54.68;100557.44;1666670;84;20197;-83
2022/05/21 11:27:01;;;;;;;;;;;;;;;17.36;55.26;100556.02;1668859;83;20212;-83
2022/05/21 11:29:46;;;;;;;;;;;;;;;17.51;55.06;100568.34;1676502;83;21747;-83
2022/05/21 11:37:54;;;;;;;;;;;;;;;17.80;53.82;100573.48;1681003;83;20504;-84
2022/05/21 11:47:15;;;;;;;;;;;;;;;17.64;53.58;100598.89;1673119;83;20235;-83
2022/05/21 11:49:52;;;;;;;;;;;;;;;17.59;53.10;100585.17;1685516;82;20275;-83
2022/05/21 11:52:37;;;;;;;;;;;;;;;17.45;53.52;100595.88;1693369;82;20255;-83
2022/05/21 11:55:23;;;;;;;;;;;;;;;17.48;53.57;100595.88;1685533;82;20206;-83
2022/05/21 11:57:58;;;;;;;;;;;;;;;17.33;53.55;100595.51;1682316;82;21891;-84
2022/05/21 12:00:27;;;;;;;;;;;;;;;17.27;53.78;100612.38;1693372;82;20229;-84
2022/05/21 12:03:15;;;;;;;;;;;;;;;;;;;;;
2022/05/21 12:05:44;;;;;;;;;;;;;;;17.25;53.16;100596.88;1684780;82;20729;-83
2022/05/21 12:08:32;;;;;;;;;;;;;;;17.33;53.17;100625.23;1689070;82;20533;-84
2022/05/21 12:11:25;;;;;;;;;;;;;;;17.38;53.44;100626.06;1689650;82;21857;-83
2022/05/21 12:14:25;;;;;;;;;;;;;;;17.55;53.48;100615.33;1693215;82;20263;-84
2022/05/21 12:16:55;;;;;;;;;;;;;;;17.72;52.91;100627.20;1701821;82;20339;-84
2022/05/21 12:19:44;;;;;;;;;;;;;;;17.66;53.31;100618.39;1667821;84;21033;-84
2022/05/21 12:22:36;;;;;;;;;;;;;;;17.74;53.06;100622.78;1681371;82;20290;-84
2022/05/21 12:25:13;;;;;;;;;;;;;;;17.63;53.07;100631.70;1640646;86;20299;-84
2022/05/21 12:27:47;;;;;;;;;;;;;;;17.64;52.88;100636.57;1672716;82;21615;-84
2022/05/21 12:30:18;;;;;;;;;;;;;;;17.89;53.39;100629.36;1684889;82;20242;-84
2022/05/21 12:32:45;;;;;;;;;;;;;;;18.33;52.81;100630.77;1696865;82;20236;-84
2022/05/21 12:35:44;;;;;;;;;;;;;;;18.40;52.23;100640.48;1699419;82;20254;-84
2022/05/21 12:38:14;;;;;;;;;;;;;;;18.34;51.79;100647.64;1670129;82;20789;-83
2022/05/21 12:41:08;;;;;;;;;;;;;;;18.37;51.96;100647.16;1683263;82;20240;-84
2022/05/21 12:43:48;;;;;;;;;;;;;;;18.59;51.98;100658.98;1680704;81;20283;-83
2022/05/21 12:46:24;;;;;;;;;;;;;;;18.53;50.66;100651.05;1648463;82;20401;-83
2022/05/21 12:48:51;;;;;;;;;;;;;;;18.43;51.13;100644.47;1688689;82;20210;-83
2022/05/21 12:51:38;;;;;;;;;;;;;;;18.53;51.36;100650.59;1681214;83;21585;-83
2022/05/21 12:54:08;;;;;;;;;;;;;;;18.63;51.11;100653.59;1679619;83;21061;-83
2022/05/21 12:56:39;;;;;;;;;;;;;;;18.43;50.21;100661.80;1670475;83;20217;-83
2022/05/21 12:59:07;;;;;;;;;;;;;;;17.85;50.11;100663.56;1678668;83;20250;-83
2022/05/21 13:01:41;;;;;;;;;;;;;;;17.44;51.01;100660.65;1676205;83;20913;-83
2022/05/21 13:04:08;;;;;;;;;;;;;;;17.22;51.50;100665.17;1679421;83;21775;-83
2022/05/21 13:06:34;;;;;;;;;;;;;;;17.07;51.88;100665.65;1675672;83;20232;-83
2022/05/21 13:09:04;;;;;;;;;;;;;;;17.01;52.27;100664.34;1682792;83;20216;-83
2022/05/21 13:11:35;;;;;;;;;;;;;;;17.03;52.40;100666.55;1680201;83;20216;-83
2022/05/21 13:14:08;;;;;;;;;;;;;;;16.99;52.51;100660.81;1683306;83;20241;-83
2022/05/21 13:16:34;;;;;;;;;;;;;;;17.14;52.70;100671.84;1680338;83;21711;-82
2022/05/21 13:19:07;;;;;;;;;;;;;;;17.30;52.64;100662.02;1664797;83;20186;-82
2022/05/21 13:21:46;;;;;;;;;;;;;;;17.55;52.67;100669.89;1679339;83;20275;-83
2022/05/21 13:24:19;;;;;;;;;;;;;;;17.66;52.07;100665.39;1681090;83;20237;-82
2022/05/21 13:26:47;;;;;;;;;;;;;;;17.67;52.12;100655.20;1677109;83;20209;-83
2022/05/21 13:29:22;;;;;;;;;;;;;;;17.92;52.00;100663.06;1657655;83;21851;-84
2022/05/21 13:31:49;;;;;;;;;;;;;;;18.00;52.01;100659.47;1668466;83;20245;-84
2022/05/21 13:34:24;;;;;;;;;;;;;;;18.23;51.50;100657.08;1680703;83;20202;-84
2022/05/21 13:36:59;;;;;;;;;;;;;;;18.29;51.18;100665.02;1675840;83;20374;-84
2022/05/21 13:39:35;;;;;;;;;;;;;;;18.33;51.04;100657.87;1687599;82;20174;-84
2022/05/21 13:42:16;;;;;;;;;;;;;;;18.38;50.87;100656.94;1685319;83;21927;-84
2022/05/21 13:44:44;;;;;;;;;;;;;;;18.00;50.31;100663.88;1668231;83;20208;-84
2022/05/21 13:47:16;;;;;;;;;;;;;;;17.68;50.67;100655.19;1686287;83;20165;-83